LFKC Airport Information

Runway Information
Runway 18 Length 7579 ft width 131 ft
Elevation 63 ft Threshold 0 ft Heading 179
Runway 36 Length 7579 ft Width 131 ft
Elevation 198 ft Threshold 656 ft Heading 359
Airport Frequencies
Type ATIS Name CALVI ATIS Frequency 131.175 MHZ
Type GND Name CALVI GND Frequency 121.7 MHZ
Type TWR Name CALVI TWR Frequency 120.8 MHZ
Airport Navaids
Type NDB Name Calvi Frequency 375 KHZ
Airport Weather Information & NOTAM
ADDS - METARS form results

(1840 UTC 20 August 2019)
Data provider http://aviationweather.gov/metar/data/
 
METAR text: LFKC 201830Z AUTO 04005KT 010V070 CAVOK 26/19 Q1017 NOSIG
Conditions at: LFKC (CALVI/ST. CATHER, FR) observed 1830 UTC 20 August 2019
Temperature: 26.0°C (79°F)
Dewpoint: 19.0°C (66°F) [RH = 65%]
Pressure (altimeter): 30.03 inches Hg (1017.0 mb)
Winds: from the NE (40 degrees) at 6 MPH (5 knots; 2.6 m/s)
Visibility: 6 or more miles (10+ km)
Ceiling: ceiling and visibility are OK
Clouds: unknown
Weather: no significant weather observed at this time

METAR text: LFKC 201800Z AUTO 03005KT CAVOK 26/18 Q1017 NOSIG
Conditions at: LFKC (CALVI/ST. CATHER, FR) observed 1800 UTC 20 August 2019
Temperature: 26.0°C (79°F)
Dewpoint: 18.0°C (64°F) [RH = 61%]
Pressure (altimeter): 30.03 inches Hg (1017.0 mb)
Winds: from the NNE (30 degrees) at 6 MPH (5 knots; 2.6 m/s)
Visibility: 6 or more miles (10+ km)
Ceiling: ceiling and visibility are OK
Clouds: unknown
Weather: no significant weather observed at this time

Forecast for: LFKC (CALVI/ST. CATHER, FR)
Text: TAF LFKC 201400Z 2015/2115 36010KT CAVOK TX30/2112Z TN19/2103Z
Forecast period: 1500 to 1800 UTC 20 August 2019
Forecast type: FROM: standard forecast or significant change
Winds: from the N (360 degrees) at 12 MPH (10 knots; 5.1 m/s)
Visibility: 6 or more miles 10+ km)
Ceiling: unknown
Clouds: missing
Weather: no significant weather forecast for this period
Text: BECMG 2018/2020 18004KT
Forecast period: 1800 UTC 20 August 2019 to 0700 UTC 21 August 2019
Forecast type: BECOMING: Conditions expected to become as follows by 2000 UTC 20 August 2019
Winds: from the S (180 degrees) at 5 MPH (4 knots; 2.1 m/s)
Visibility: 6 or more miles 10+ km)
Ceiling: unknown
Clouds: missing
Weather: no significant weather forecast for this period
Text: TEMPO 2101/2105 BKN015
Forecast period: 0100 to 0500 UTC 21 August 2019
Forecast type: TEMPORARY: The following changes expected for less than half the time period
Visibility: missing
Ceiling: 1500 feet AGL
Clouds: broken clouds at 1500 feet AGL
Weather: no significant weather forecast for this period
Text: BECMG 2107/2110 36010KT
Forecast period: 0700 to 1500 UTC 21 August 2019
Forecast type: BECOMING: Conditions expected to become as follows by 1000 UTC 21 August 2019
Winds: from the N (360 degrees) at 12 MPH (10 knots; 5.1 m/s)
Visibility: 6 or more miles 10+ km)
Ceiling: unknown
Clouds: missing
Weather: no significant weather forecast for this period